^^
Station Historical Data
Daily Summary for January 5, 2018 Units:  English    Metric   Both
« Previous Day
Next Day »
Daily Weekly Monthly Yearly Custom
  High: Low: Average:
Temperature: TemperatureF °F 32.0 °F 42.7 °F
Dew Point: DewpointF °F 12.7 °F 19 °F
Humidity: Humidity% 20% 40%
Wind Speed: WindSpeedMPHmph 0.0mph 0mph
Wind Gust: WindSpeedGustMPHmph - -
Wind- - North
Pressure: PressureIn in 30.23 in -
Precipitation: 0.00 in    
Historical Graphs
 
 
Tabular Data for January 5, 2018
Time Temperature Dew Point Pressure Wind Wind Speed Wind Gust Humidity Rainfall Rate (Hourly) solar Conditions
TemperatureF °F DewpointF °F PressureIn in Calm     Humidity% HourlyPrecipIn in SolarRadiationWatts/m^2 W/m2 Conditions
00:10 39.0 °F 24.6 °F 30.24 in Calm     56% 0.00 in 0.0 W/m2 CLR
00:20 39.0 °F 24.6 °F 30.24 in Calm     56% 0.00 in 0.0 W/m2 CLR
00:35 39.0 °F 24.6 °F 30.24 in Calm     56% 0.00 in 0.0 W/m2 CLR
00:45 39.0 °F 24.6 °F 30.24 in Calm     56% 0.00 in 0.0 W/m2 CLR
00:50 39.0 °F 24.6 °F 30.24 in Calm     56% 0.00 in 0.0 W/m2 CLR
01:00 39.0 °F 24.6 °F 30.24 in Calm     56% 0.00 in 0.0 W/m2 CLR
01:10 39.9 °F 24.6 °F 30.23 in Calm     54% 0.00 in 0.0 W/m2 CLR
01:15 39.9 °F 24.6 °F 30.23 in Calm     54% 0.00 in 0.0 W/m2 CLR
01:25 39.9 °F 24.6 °F 30.23 in Calm     54% 0.00 in 0.0 W/m2 CLR
01:35 39.9 °F 24.6 °F 30.23 in Calm     54% 0.00 in 0.0 W/m2 CLR
01:40 39.9 °F 24.6 °F 30.23 in Calm     54% 0.00 in 0.0 W/m2 CLR
01:50 39.9 °F 24.6 °F 30.23 in Calm     54% 0.00 in 0.0 W/m2 CLR
02:00 39.9 °F 24.6 °F 30.23 in Calm     54% 0.00 in 0.0 W/m2 CLR
02:10 39.9 °F 21.8 °F 30.23 in Calm     48% 0.00 in 0.0 W/m2 CLR
02:25 39.9 °F 21.8 °F 30.23 in Calm     48% 0.00 in 0.0 W/m2 CLR
02:35 39.9 °F 21.8 °F 30.23 in Calm     48% 0.00 in 0.0 W/m2 CLR
02:50 39.9 °F 21.8 °F 30.23 in Calm     48% 0.00 in 0.0 W/m2 CLR
03:10 37.9 °F 19.5 °F 30.23 in Calm     47% 0.00 in 0.0 W/m2 CLR
03:20 37.9 °F 19.5 °F 30.23 in Calm     47% 0.00 in 0.0 W/m2 CLR
03:25 37.9 °F 19.5 °F 30.23 in Calm     47% 0.00 in 0.0 W/m2 CLR
03:30 37.9 °F 19.5 °F 30.23 in Calm     47% 0.00 in 0.0 W/m2 CLR
03:40 37.9 °F 19.5 °F 30.23 in Calm     47% 0.00 in 0.0 W/m2 CLR
03:50 37.9 °F 19.5 °F 30.23 in Calm     47% 0.00 in 0.0 W/m2 CLR
04:00 37.9 °F 19.5 °F 30.23 in Calm     47% 0.00 in 0.0 W/m2 CLR
04:15 37.0 °F 16.6 °F 30.24 in Calm     43% 0.00 in 0.0 W/m2 CLR
04:25 37.0 °F 16.6 °F 30.24 in Calm     43% 0.00 in 0.0 W/m2 CLR
04:30 37.0 °F 16.6 °F 30.24 in Calm     43% 0.00 in 0.0 W/m2 CLR
04:45 37.0 °F 16.6 °F 30.24 in Calm     43% 0.00 in 0.0 W/m2 CLR
04:55 37.0 °F 16.6 °F 30.24 in Calm     43% 0.00 in 0.0 W/m2 CLR
05:00 37.0 °F 16.6 °F 30.24 in Calm     43% 0.00 in 0.0 W/m2 CLR
05:10 35.1 °F 17.8 °F 30.25 in Calm     49% 0.00 in 0.0 W/m2 CLR
05:20 35.1 °F 17.8 °F 30.25 in Calm     49% 0.00 in 0.0 W/m2 CLR
05:30 35.1 °F 17.8 °F 30.25 in Calm     49% 0.00 in 0.0 W/m2 CLR
05:40 35.1 °F 17.8 °F 30.25 in Calm     49% 0.00 in 0.0 W/m2 CLR
05:45 35.1 °F 17.8 °F 30.25 in Calm     49% 0.00 in 0.0 W/m2 CLR
06:05 32.0 °F 20.8 °F 30.28 in Calm     63% 0.00 in 0.0 W/m2 CLR
06:10 32.0 °F 20.8 °F 30.28 in Calm     63% 0.00 in 0.0 W/m2 CLR
06:15 32.0 °F 20.8 °F 30.28 in Calm     63% 0.00 in 0.0 W/m2 CLR
06:25 32.0 °F 20.8 °F 30.28 in Calm     63% 0.00 in 0.0 W/m2 CLR
06:30 32.0 °F 20.8 °F 30.28 in Calm     63% 0.00 in 0.0 W/m2 CLR
06:40 32.0 °F 20.8 °F 30.28 in Calm     63% 0.00 in 0.0 W/m2 CLR
06:45 32.0 °F 20.8 °F 30.28 in Calm     63% 0.00 in 0.0 W/m2 CLR
06:55 32.0 °F 20.8 °F 30.28 in Calm     63% 0.00 in 0.0 W/m2 CLR
07:00 32.0 °F 20.8 °F 30.28 in Calm     63% 0.00 in 0.0 W/m2 CLR
07:10 32.0 °F 19.7 °F 30.31 in Calm     60% 0.00 in 0.0 W/m2 CLR
07:15 32.0 °F 19.7 °F 30.31 in Calm     60% 0.00 in 0.0 W/m2 CLR
07:25 32.0 °F 19.7 °F 30.31 in Calm     60% 0.00 in 0.0 W/m2 CLR
07:30 32.0 °F 19.7 °F 30.31 in Calm     60% 0.00 in 0.0 W/m2 CLR
07:40 32.0 °F 19.7 °F 30.31 in Calm     60% 0.00 in 0.0 W/m2 CLR
08:10 34.0 °F 19.5 °F 30.33 in Calm     55% 0.00 in 0.0 W/m2 CLR
08:15 34.0 °F 19.5 °F 30.33 in Calm     55% 0.00 in 0.0 W/m2 CLR
08:40 34.0 °F 19.5 °F 30.33 in Calm     55% 0.00 in 0.0 W/m2 CLR
08:45 34.0 °F 19.5 °F 30.33 in Calm     55% 0.00 in 0.0 W/m2 CLR
08:55 34.0 °F 19.5 °F 30.33 in Calm     55% 0.00 in 0.0 W/m2 CLR
09:05 37.0 °F 17.6 °F 30.36 in Calm     45% 0.00 in 0.0 W/m2 CLR
09:10 37.0 °F 17.6 °F 30.36 in Calm     45% 0.00 in 0.0 W/m2 CLR
09:15 37.0 °F 17.6 °F 30.36 in Calm     45% 0.00 in 0.0 W/m2 CLR
09:25 37.0 °F 17.6 °F 30.36 in Calm     45% 0.00 in 0.0 W/m2 CLR
09:30 37.0 °F 17.6 °F 30.36 in Calm     45% 0.00 in 0.0 W/m2 CLR
09:40 37.0 °F 17.6 °F 30.36 in Calm     45% 0.00 in 0.0 W/m2 CLR
09:45 37.0 °F 17.6 °F 30.36 in Calm     45% 0.00 in 0.0 W/m2 CLR
09:55 37.0 °F 17.6 °F 30.36 in Calm     45% 0.00 in 0.0 W/m2 CLR
10:00 37.0 °F 17.6 °F 30.36 in Calm     45% 0.00 in 0.0 W/m2 CLR
10:10 39.9 °F 15.7 °F 30.38 in Calm     37% 0.00 in 0.0 W/m2 CLR
10:15 39.9 °F 15.7 °F 30.38 in Calm     37% 0.00 in 0.0 W/m2 CLR
10:30 39.9 °F 15.7 °F 30.38 in Calm     37% 0.00 in 0.0 W/m2 CLR
10:40 39.9 °F 15.7 °F 30.38 in Calm     37% 0.00 in 0.0 W/m2 CLR
10:45 39.9 °F 15.7 °F 30.38 in Calm     37% 0.00 in 0.0 W/m2 CLR
11:05 43.0 °F 13.6 °F 30.37 in Calm     30% 0.00 in 0.0 W/m2 CLR
11:15 43.0 °F 13.6 °F 30.37 in Calm     30% 0.00 in 0.0 W/m2 CLR
11:25 43.0 °F 13.6 °F 30.37 in Calm     30% 0.00 in 0.0 W/m2 CLR
11:30 43.0 °F 13.6 °F 30.37 in Calm     30% 0.00 in 0.0 W/m2 CLR
11:40 43.0 °F 13.6 °F 30.37 in Calm     30% 0.00 in 0.0 W/m2 CLR
11:45 43.0 °F 13.6 °F 30.37 in Calm     30% 0.00 in 0.0 W/m2 CLR
11:55 43.0 °F 13.6 °F 30.37 in Calm     30% 0.00 in 0.0 W/m2 CLR
12:00 43.0 °F 13.6 °F 30.37 in Calm     30% 0.00 in 0.0 W/m2 CLR
12:10 46.0 °F 13.9 °F 30.35 in Calm     27% 0.00 in 0.0 W/m2 CLR
12:15 46.0 °F 13.9 °F 30.35 in Calm     27% 0.00 in 0.0 W/m2 CLR
12:25 46.0 °F 13.9 °F 30.35 in Calm     27% 0.00 in 0.0 W/m2 CLR
12:30 46.0 °F 13.9 °F 30.35 in Calm     27% 0.00 in 0.0 W/m2 CLR
12:40 46.0 °F 13.9 °F 30.35 in Calm     27% 0.00 in 0.0 W/m2 CLR
12:45 46.0 °F 13.9 °F 30.35 in Calm     27% 0.00 in 0.0 W/m2 CLR
12:55 46.0 °F 13.9 °F 30.35 in Calm     27% 0.00 in 0.0 W/m2 CLR
13:00 46.0 °F 13.9 °F 30.35 in Calm     27% 0.00 in 0.0 W/m2 CLR
13:10 48.9 °F 12.7 °F 30.33 in Calm     23% 0.00 in 0.0 W/m2 CLR
13:15 48.9 °F 12.7 °F 30.33 in Calm     23% 0.00 in 0.0 W/m2 CLR
13:25 48.9 °F 12.7 °F 30.33 in Calm     23% 0.00 in 0.0 W/m2 CLR
13:30 48.9 °F 12.7 °F 30.33 in Calm     23% 0.00 in 0.0 W/m2 CLR
13:40 48.9 °F 12.7 °F 30.33 in Calm     23% 0.00 in 0.0 W/m2 CLR
13:45 48.9 °F 12.7 °F 30.33 in Calm     23% 0.00 in 0.0 W/m2 CLR
13:50 48.9 °F 12.7 °F 30.33 in Calm     23% 0.00 in 0.0 W/m2 CLR
14:00 48.9 °F 12.7 °F 30.33 in Calm     23% 0.00 in 0.0 W/m2 CLR
14:10 52.0 °F 13.2 °F 30.30 in Calm     21% 0.00 in 0.0 W/m2 CLR
14:15 52.0 °F 13.2 °F 30.30 in Calm     21% 0.00 in 0.0 W/m2 CLR
14:25 52.0 °F 13.2 °F 30.30 in Calm     21% 0.00 in 0.0 W/m2 CLR
14:30 52.0 °F 13.2 °F 30.30 in Calm     21% 0.00 in 0.0 W/m2 CLR
14:45 52.0 °F 13.2 °F 30.30 in Calm     21% 0.00 in 0.0 W/m2 CLR
14:55 52.0 °F 13.2 °F 30.30 in Calm     21% 0.00 in 0.0 W/m2 CLR
15:05 55.0 °F 14.6 °F 30.30 in Calm     20% 0.00 in 0.0 W/m2 CLR
15:15 55.0 °F 14.6 °F 30.30 in Calm     20% 0.00 in 0.0 W/m2 CLR
15:25 55.0 °F 14.6 °F 30.30 in Calm     20% 0.00 in 0.0 W/m2 CLR
15:40 55.0 °F 14.6 °F 30.30 in Calm     20% 0.00 in 0.0 W/m2 CLR
15:45 55.0 °F 14.6 °F 30.30 in Calm     20% 0.00 in 0.0 W/m2 CLR
15:55 55.0 °F 14.6 °F 30.30 in Calm     20% 0.00 in 0.0 W/m2 CLR
16:00 55.0 °F 14.6 °F 30.30 in Calm     20% 0.00 in 0.0 W/m2 CLR
16:20 54.0 °F 14.9 °F 30.31 in Calm     21% 0.00 in 0.0 W/m2 CLR
16:45 54.0 °F 14.9 °F 30.31 in Calm     21% 0.00 in 0.0 W/m2 CLR
17:00 54.0 °F 14.9 °F 30.31 in Calm     21% 0.00 in 0.0 W/m2 CLR
17:10 53.1 °F 16.2 °F 30.33 in Calm     23% 0.00 in 0.0 W/m2 CLR
17:15 53.1 °F 16.2 °F 30.33 in Calm     23% 0.00 in 0.0 W/m2 CLR
17:25 53.1 °F 16.2 °F 30.33 in Calm     23% 0.00 in 0.0 W/m2 CLR
17:30 53.1 °F 16.2 °F 30.33 in Calm     23% 0.00 in 0.0 W/m2 CLR
17:40 53.1 °F 16.2 °F 30.33 in Calm     23% 0.00 in 0.0 W/m2 CLR
17:45 53.1 °F 16.2 °F 30.33 in Calm     23% 0.00 in 0.0 W/m2 CLR
18:00 53.1 °F 16.2 °F 30.33 in Calm     23% 0.00 in 0.0 W/m2 CLR
18:10 48.0 °F 20.9 °F 30.34 in Calm     34% 0.00 in 0.0 W/m2 CLR
18:15 48.0 °F 20.9 °F 30.34 in Calm     34% 0.00 in 0.0 W/m2 CLR
18:25 48.0 °F 20.9 °F 30.34 in Calm     34% 0.00 in 0.0 W/m2 CLR
18:30 48.0 °F 20.9 °F 30.34 in Calm     34% 0.00 in 0.0 W/m2 CLR
18:40 48.0 °F 20.9 °F 30.34 in Calm     34% 0.00 in 0.0 W/m2 CLR
18:50 48.0 °F 20.9 °F 30.34 in Calm     34% 0.00 in 0.0 W/m2 CLR
19:00 48.0 °F 20.9 °F 30.34 in Calm     34% 0.00 in 0.0 W/m2 CLR
19:10 48.0 °F 21.6 °F 30.36 in Calm     35% 0.00 in 0.0 W/m2 CLR
19:15 48.0 °F 21.6 °F 30.36 in Calm     35% 0.00 in 0.0 W/m2 CLR
19:25 48.0 °F 21.6 °F 30.36 in Calm     35% 0.00 in 0.0 W/m2 CLR
19:35 48.0 °F 21.6 °F 30.36 in Calm     35% 0.00 in 0.0 W/m2 CLR
19:50 48.0 °F 21.6 °F 30.36 in Calm     35% 0.00 in 0.0 W/m2 CLR
20:10 46.0 °F 23.6 °F 30.38 in Calm     41% 0.00 in 0.0 W/m2 CLR
20:15 46.0 °F 23.6 °F 30.38 in Calm     41% 0.00 in 0.0 W/m2 CLR
20:25 46.0 °F 23.6 °F 30.38 in Calm     41% 0.00 in 0.0 W/m2 CLR
20:35 46.0 °F 23.6 °F 30.38 in Calm     41% 0.00 in 0.0 W/m2 CLR
20:40 46.0 °F 23.6 °F 30.38 in Calm     41% 0.00 in 0.0 W/m2 CLR
20:45 46.0 °F 23.6 °F 30.38 in Calm     41% 0.00 in 0.0 W/m2 CLR
20:55 46.0 °F 23.6 °F 30.38 in Calm     41% 0.00 in 0.0 W/m2 CLR
21:05 46.0 °F 24.8 °F 30.38 in Calm     43% 0.00 in 0.0 W/m2 CLR
21:15 46.0 °F 24.8 °F 30.38 in Calm     43% 0.00 in 0.0 W/m2 CLR
21:25 46.0 °F 24.8 °F 30.38 in Calm     43% 0.00 in 0.0 W/m2 CLR
21:30 46.0 °F 24.8 °F 30.38 in Calm     43% 0.00 in 0.0 W/m2 CLR
21:40 46.0 °F 24.8 °F 30.38 in Calm     43% 0.00 in 0.0 W/m2 CLR
21:45 46.0 °F 24.8 °F 30.38 in Calm     43% 0.00 in 0.0 W/m2 CLR
21:55 46.0 °F 24.8 °F 30.38 in Calm     43% 0.00 in 0.0 W/m2 CLR
22:00 46.0 °F 24.8 °F 30.38 in Calm     43% 0.00 in 0.0 W/m2 CLR
22:05 44.1 °F 29.8 °F 30.38 in Calm     57% 0.00 in 0.0 W/m2 CLR
22:15 44.1 °F 29.8 °F 30.38 in Calm     57% 0.00 in 0.0 W/m2 CLR
22:25 44.1 °F 29.8 °F 30.38 in Calm     57% 0.00 in 0.0 W/m2 CLR
22:30 44.1 °F 29.8 °F 30.38 in Calm     57% 0.00 in 0.0 W/m2 CLR
22:40 44.1 °F 29.8 °F 30.38 in Calm     57% 0.00 in 0.0 W/m2 CLR
22:45 44.1 °F 29.8 °F 30.38 in Calm     57% 0.00 in 0.0 W/m2 CLR
22:55 44.1 °F 29.8 °F 30.38 in Calm     57% 0.00 in 0.0 W/m2 CLR
23:30 45.0 °F 25.9 °F 30.40 in Calm     47% 0.00 in 0.0 W/m2 CLR
23:40 45.0 °F 25.9 °F 30.40 in Calm     47% 0.00 in 0.0 W/m2 CLR
Lake Mary, FL, USA
Compliments of Weather Underground - 1.5 mb